createdAt,value
2022-09-23T00:02:53.654Z,100558.97
2022-09-23T00:05:58.965Z,100564.66
2022-09-23T00:09:00.665Z,100555.56
2022-09-23T00:12:08.796Z,100558.50
2022-09-23T00:15:11.265Z,100553.25
2022-09-23T00:18:12.881Z,100559.25
2022-09-23T00:21:14.780Z,100551.44
2022-09-23T00:24:16.532Z,100548.59
2022-09-23T00:27:21.428Z,100538.69
2022-09-23T00:30:23.576Z,100529.19
2022-09-23T00:33:25.256Z,100533.53
2022-09-23T00:36:28.284Z,100527.69
2022-09-23T00:39:30.227Z,100539.38
2022-09-23T00:42:33.187Z,100528.44
2022-09-23T00:45:35.058Z,100535.13
2022-09-23T00:48:39.128Z,100538.00
2022-09-23T00:51:47.397Z,100531.38
2022-09-23T00:54:52.436Z,100526.25
2022-09-23T00:57:58.589Z,100530.22
2022-09-23T01:01:01.359Z,100523.41
2022-09-23T01:04:03.609Z,100522.22
2022-09-23T01:07:05.284Z,100526.41
2022-09-23T01:10:09.041Z,100518.50
2022-09-23T01:13:20.649Z,100523.69
2022-09-23T01:16:29.123Z,100520.91
2022-09-23T01:19:52.985Z,100525.38
2022-09-23T01:23:08.913Z,100518.66
2022-09-23T01:26:26.738Z,100518.59
2022-09-23T01:29:58.109Z,100509.94
2022-09-23T01:33:10.796Z,100506.31
2022-09-23T01:36:22.619Z,100513.56
2022-09-23T01:39:36.116Z,100515.56
2022-09-23T01:42:42.960Z,100519.47
2022-09-23T01:45:47.838Z,100511.41
2022-09-23T01:48:59.273Z,100510.16
2022-09-23T01:52:06.848Z,100501.44
2022-09-23T01:55:15.751Z,100507.28
2022-09-23T01:58:22.885Z,100503.91
2022-09-23T02:01:35.110Z,100506.97
2022-09-23T02:04:46.778Z,100507.91
2022-09-23T02:07:54.728Z,100504.81
2022-09-23T02:11:00.578Z,100511.78
2022-09-23T02:14:09.126Z,100509.28
2022-09-23T02:17:15.710Z,100506.50
2022-09-23T02:20:24.067Z,100506.00
2022-09-23T02:23:30.042Z,100502.88
2022-09-23T02:26:35.274Z,100504.09
2022-09-23T02:29:48.894Z,100497.16
2022-09-23T02:32:54.691Z,100490.25
2022-09-23T02:36:06.524Z,100500.25
2022-09-23T02:39:12.463Z,100493.03
2022-09-23T02:42:18.732Z,100493.69
2022-09-23T02:45:20.456Z,100493.19
2022-09-23T02:48:26.635Z,100499.16
2022-09-23T02:51:31.919Z,100495.72
2022-09-23T02:54:34.458Z,100484.34
2022-09-23T02:57:36.166Z,100487.13
2022-09-23T03:01:06.096Z,100475.03
2022-09-23T03:04:15.901Z,100479.78
2022-09-23T03:07:25.161Z,100477.19
2022-09-23T03:10:33.862Z,100467.78
2022-09-23T03:13:47.618Z,100468.38
2022-09-23T03:16:56.161Z,100468.22
2022-09-23T03:20:02.843Z,100464.44
2022-09-23T03:23:10.709Z,100461.44
2022-09-23T03:26:29.759Z,100459.63
2022-09-23T03:29:32.461Z,100467.09
2022-09-23T03:32:36.421Z,100464.75
2022-09-23T03:36:02.349Z,100470.06
2022-09-23T03:39:10.277Z,100464.47
2022-09-23T03:42:16.952Z,100463.97
2022-09-23T03:45:23.158Z,100463.97
2022-09-23T03:48:25.360Z,100462.84
2022-09-23T03:51:26.929Z,100463.53
2022-09-23T03:54:29.941Z,100455.47
2022-09-23T03:57:31.828Z,100461.88
2022-09-23T04:00:36.036Z,100461.09
2022-09-23T04:03:37.743Z,100458.97
2022-09-23T04:06:39.385Z,100451.47
2022-09-23T04:09:42.417Z,100450.34
2022-09-23T04:12:44.087Z,100450.72
2022-09-23T04:15:45.742Z,100451.31
2022-09-23T04:18:48.401Z,100450.00
2022-09-23T04:21:50.523Z,100463.31
2022-09-23T04:24:53.553Z,100456.41
2022-09-23T04:27:55.351Z,100458.19
2022-09-23T04:30:57.802Z,100457.41
2022-09-23T04:33:59.937Z,100467.25
2022-09-23T04:37:01.658Z,100467.00
2022-09-23T04:40:05.762Z,100470.00
2022-09-23T04:43:11.706Z,100466.09
2022-09-23T04:46:16.295Z,100477.56
2022-09-23T04:49:18.436Z,100481.41
2022-09-23T04:52:20.164Z,100479.88
2022-09-23T04:55:23.169Z,100483.94
2022-09-23T04:58:25.274Z,100480.91
2022-09-23T05:01:30.334Z,100489.25
2022-09-23T05:04:32.436Z,100484.91
2022-09-23T05:07:34.183Z,100497.13
2022-09-23T05:10:37.214Z,100492.81
2022-09-23T05:13:38.861Z,100490.03
2022-09-23T05:16:40.832Z,100483.19
2022-09-23T05:19:42.481Z,100480.50
2022-09-23T05:22:44.948Z,100477.06
2022-09-23T05:25:48.213Z,100474.94
2022-09-23T05:28:49.866Z,100480.84
2022-09-23T05:31:51.613Z,100480.59
2022-09-23T05:34:55.074Z,100483.31
2022-09-23T05:37:56.745Z,100485.22
2022-09-23T05:41:01.323Z,100483.19
2022-09-23T05:44:03.243Z,100483.25
2022-09-23T05:47:05.399Z,100491.84
2022-09-23T05:50:07.770Z,100497.00
2022-09-23T05:53:09.388Z,100496.66
2022-09-23T05:56:12.981Z,100494.59
2022-09-23T05:59:14.560Z,100499.38
2022-09-23T06:02:16.285Z,100500.97
2022-09-23T06:05:18.110Z,100500.53
2022-09-23T06:08:20.015Z,100497.53
2022-09-23T06:11:23.030Z,100498.19
2022-09-23T06:14:24.682Z,100499.63
2022-09-23T06:17:26.350Z,100485.63
2022-09-23T06:20:28.219Z,100486.09
2022-09-23T06:23:31.005Z,100481.06
2022-09-23T06:26:35.047Z,100474.41
2022-09-23T06:29:36.931Z,100476.69
2022-09-23T06:32:38.522Z,100473.88
2022-09-23T06:35:40.597Z,100463.16
2022-09-23T06:38:49.225Z,100471.63
2022-09-23T06:41:52.143Z,100471.91
2022-09-23T06:44:53.827Z,100482.72
2022-09-23T06:47:56.659Z,100480.81
2022-09-23T06:51:02.392Z,100477.53
2022-09-23T06:54:04.666Z,100479.25
2022-09-23T06:57:07.654Z,100472.00
2022-09-23T07:00:10.641Z,100461.22
2022-09-23T07:03:12.412Z,100464.81
2022-09-23T07:06:14.430Z,100475.94
2022-09-23T07:09:16.225Z,100477.16
2022-09-23T07:12:19.237Z,100476.28
2022-09-23T07:15:21.251Z,100478.41
2022-09-23T07:18:25.935Z,100478.91
2022-09-23T07:21:27.802Z,100472.88
2022-09-23T07:24:29.407Z,100476.75
2022-09-23T07:27:33.240Z,100476.88
2022-09-23T07:30:36.952Z,100469.63
2022-09-23T07:33:40.040Z,100472.84
2022-09-23T07:36:41.909Z,100480.22
2022-09-23T07:39:44.556Z,100480.22
2022-09-23T07:42:47.835Z,100482.53
2022-09-23T07:45:49.457Z,100483.63
2022-09-23T07:48:51.123Z,100488.06
2022-09-23T07:51:53.609Z,100489.38
2022-09-23T07:54:55.286Z,100488.34
2022-09-23T07:57:58.295Z,100480.41
2022-09-23T08:01:05.351Z,100486.34
2022-09-23T08:04:14.234Z,100491.44
2022-09-23T08:07:16.311Z,100494.47
2022-09-23T08:10:21.075Z,100486.75
2022-09-23T08:13:24.068Z,100489.97
2022-09-23T08:16:25.859Z,100495.38
2022-09-23T08:19:27.565Z,100490.75
2022-09-23T08:22:29.736Z,100490.75
2022-09-23T08:25:34.746Z,100497.63
2022-09-23T08:28:37.899Z,100499.44
2022-09-23T08:31:39.662Z,100502.69
2022-09-23T08:34:41.540Z,100505.31
2022-09-23T08:37:43.163Z,100504.81
2022-09-23T08:40:48.303Z,100509.38
2022-09-23T08:43:56.288Z,100509.69
2022-09-23T08:47:11.257Z,100501.63
2022-09-23T08:50:18.275Z,100510.66
2022-09-23T08:53:26.133Z,100506.31
2022-09-23T08:56:29.952Z,100507.63
2022-09-23T08:59:41.649Z,100507.19
2022-09-23T09:02:43.437Z,100506.34
2022-09-23T09:05:53.712Z,100504.50
2022-09-23T09:09:00.857Z,100503.72
2022-09-23T09:12:08.827Z,100498.91
2022-09-23T09:15:15.345Z,100489.72
2022-09-23T09:18:19.853Z,100489.47
2022-09-23T09:21:28.072Z,100492.56
2022-09-23T09:24:34.682Z,100485.41
2022-09-23T09:27:40.542Z,100482.22
2022-09-23T09:30:48.329Z,100470.91
2022-09-23T09:33:57.917Z,100475.41
2022-09-23T09:37:07.199Z,100473.56
2022-09-23T09:40:12.107Z,100465.00
2022-09-23T09:43:23.227Z,100465.78
2022-09-23T09:46:51.714Z,100473.69
2022-09-23T09:49:58.897Z,100462.56
2022-09-23T09:53:15.707Z,100452.88
2022-09-23T09:56:20.594Z,100449.22
2022-09-23T09:59:27.430Z,100446.31
2022-09-23T10:02:36.338Z,100449.19
2022-09-23T10:05:48.873Z,100431.66
2022-09-23T10:09:12.826Z,100442.09
2022-09-23T10:12:18.438Z,100437.25
2022-09-23T10:15:31.165Z,100433.94
2022-09-23T10:18:37.605Z,100428.72
2022-09-23T10:21:39.653Z,100428.56
2022-09-23T10:24:48.762Z,100425.34
2022-09-23T10:27:50.427Z,100419.34
2022-09-23T10:31:04.647Z,100419.63
2022-09-23T10:34:24.920Z,100417.09
2022-09-23T10:37:38.592Z,100409.50
2022-09-23T10:41:01.749Z,100406.38
2022-09-23T10:44:39.802Z,100403.78
2022-09-23T10:47:51.231Z,100403.19
2022-09-23T10:50:57.070Z,100408.13
2022-09-23T10:54:10.897Z,100404.56
2022-09-23T10:57:41.795Z,100395.84
2022-09-23T11:00:53.287Z,100394.53
2022-09-23T11:04:16.824Z,100382.75
2022-09-23T11:07:36.359Z,100392.66
2022-09-23T11:10:55.750Z,100391.78
2022-09-23T11:14:16.919Z,100387.38
2022-09-23T11:17:31.222Z,100385.50
2022-09-23T11:20:44.783Z,100387.78
2022-09-23T11:24:19.434Z,100375.69
2022-09-23T11:27:35.714Z,100380.69
2022-09-23T11:30:47.401Z,100375.75
2022-09-23T11:34:06.220Z,100367.66
2022-09-23T11:37:13.998Z,100364.81
2022-09-23T11:40:23.292Z,100364.59
2022-09-23T11:43:28.676Z,100352.34
2022-09-23T11:46:35.963Z,100360.84
2022-09-23T11:49:42.714Z,100356.06
2022-09-23T11:52:47.961Z,100348.53
2022-09-23T11:55:58.425Z,100341.28
2022-09-23T11:59:04.806Z,100357.91
2022-09-23T12:02:21.194Z,100341.78
2022-09-23T12:05:27.645Z,100334.47
2022-09-23T12:08:32.329Z,100334.03
2022-09-23T12:11:42.570Z,100329.59
2022-09-23T12:14:57.201Z,100336.41
2022-09-23T12:18:13.295Z,100329.53
2022-09-23T12:21:50.232Z,100321.16
2022-09-23T12:24:58.492Z,100313.91
2022-09-23T12:28:04.773Z,100327.03
2022-09-23T12:31:11.283Z,100312.97
2022-09-23T12:34:24.694Z,100310.88
2022-09-23T12:37:29.809Z,100310.41
2022-09-23T12:40:35.136Z,100309.81
2022-09-23T12:43:51.380Z,100309.25
2022-09-23T12:47:28.812Z,100310.19
2022-09-23T12:50:47.849Z,100298.03
2022-09-23T12:53:53.403Z,100303.50
2022-09-23T12:56:59.974Z,100296.06
2022-09-23T13:00:22.982Z,100296.97
2022-09-23T13:03:54.032Z,100296.16
2022-09-23T13:06:58.806Z,100288.09
2022-09-23T13:10:08.960Z,100290.47
2022-09-23T13:13:20.321Z,100286.28
2022-09-23T13:16:29.398Z,100281.13
2022-09-23T13:19:46.161Z,100276.84
2022-09-23T13:23:05.940Z,100275.53
2022-09-23T13:26:12.110Z,100278.03
2022-09-23T13:29:20.013Z,100270.88
2022-09-23T13:32:28.148Z,100263.63
2022-09-23T13:35:34.665Z,100262.50
2022-09-23T13:38:36.356Z,100259.00
2022-09-23T13:41:38.069Z,100263.81
2022-09-23T13:44:40.608Z,100265.19
2022-09-23T13:47:46.866Z,100259.91
2022-09-23T13:50:50.710Z,100247.59
2022-09-23T13:53:54.269Z,100250.69
2022-09-23T13:56:56.634Z,100246.44
2022-09-23T14:00:01.592Z,100228.28
2022-09-23T14:03:25.842Z,100219.84
2022-09-23T14:06:30.683Z,100232.16
2022-09-23T14:09:35.524Z,100218.34
2022-09-23T14:12:38.862Z,100216.34
2022-09-23T14:15:40.631Z,100224.34
2022-09-23T14:18:46.547Z,100222.25
2022-09-23T14:21:49.870Z,100222.84
2022-09-23T14:24:52.843Z,100216.41
2022-09-23T14:27:58.560Z,100214.78
2022-09-23T14:31:02.637Z,100215.06
2022-09-23T14:34:06.160Z,100211.66
2022-09-23T14:37:38.942Z,100212.03
2022-09-23T14:40:52.279Z,100206.00
2022-09-23T14:43:59.425Z,100207.00
2022-09-23T14:47:01.209Z,100198.91
2022-09-23T14:50:27.021Z,100195.28
2022-09-23T14:53:38.031Z,100190.56
2022-09-23T14:56:42.168Z,100182.94
2022-09-23T14:59:50.966Z,100185.69
2022-09-23T15:02:59.032Z,100188.88
2022-09-23T15:06:08.839Z,100185.75
2022-09-23T15:09:17.543Z,100179.63
2022-09-23T15:12:22.168Z,100175.03
2022-09-23T15:15:30.408Z,100174.47
2022-09-23T15:18:35.124Z,100179.41
2022-09-23T15:21:42.165Z,100173.56
2022-09-23T15:24:45.117Z,100165.56
2022-09-23T15:27:58.760Z,100175.22
2022-09-23T15:31:00.416Z,100169.22
2022-09-23T15:34:02.213Z,100166.69
2022-09-23T15:37:05.204Z,100171.84
2022-09-23T15:40:16.775Z,100172.50
2022-09-23T15:43:22.041Z,100177.84
2022-09-23T15:46:28.124Z,100172.34
2022-09-23T15:49:34.186Z,100179.03
2022-09-23T15:52:37.961Z,100177.28
2022-09-23T15:55:39.595Z,100179.94
2022-09-23T15:58:41.312Z,100179.84
2022-09-23T16:01:44.111Z,100178.31
2022-09-23T16:04:51.009Z,100169.38
2022-09-23T16:07:54.110Z,100153.72
2022-09-23T16:10:56.187Z,100152.53
2022-09-23T16:13:58.326Z,100164.44
2022-09-23T16:17:03.346Z,100164.34
2022-09-23T16:20:05.561Z,100169.06
2022-09-23T16:23:33.963Z,100159.03
2022-09-23T16:26:36.983Z,100153.56
2022-09-23T16:29:38.661Z,100155.59
2022-09-23T16:32:40.334Z,100151.16
2022-09-23T16:35:41.966Z,100153.56
2022-09-23T16:38:45.076Z,100150.28
2022-09-23T16:41:46.718Z,100145.13
2022-09-23T16:44:48.360Z,100150.41
2022-09-23T16:47:51.370Z,100147.03
2022-09-23T16:50:53.961Z,100139.41
2022-09-23T16:53:59.307Z,100144.44
2022-09-23T16:57:01.040Z,100142.63
2022-09-23T17:00:23.736Z,100141.97
2022-09-23T17:03:40.789Z,100146.38
2022-09-23T17:06:43.704Z,100151.97
2022-09-23T17:09:46.673Z,100144.41
2022-09-23T17:12:48.306Z,100141.88
2022-09-23T17:15:50.352Z,100144.94
2022-09-23T17:18:55.342Z,100145.47
2022-09-23T17:21:56.957Z,100145.44
2022-09-23T17:25:00.329Z,100146.13
2022-09-23T17:28:02.213Z,100146.25
2022-09-23T17:31:07.346Z,100154.19
2022-09-23T17:34:09.526Z,100160.44
2022-09-23T17:37:11.185Z,100150.78
2022-09-23T17:40:14.528Z,100141.72
2022-09-23T17:43:17.760Z,100145.16
2022-09-23T17:46:19.437Z,100144.47
2022-09-23T17:49:21.922Z,100139.22
2022-09-23T17:52:23.609Z,100150.34
2022-09-23T17:55:26.633Z,100146.53
2022-09-23T17:58:29.652Z,100140.66
2022-09-23T18:01:31.578Z,100130.44
2022-09-23T18:04:33.368Z,100130.59
2022-09-23T18:07:35.602Z,100136.19
2022-09-23T18:10:38.806Z,100135.41
2022-09-23T18:13:40.513Z,100146.78
2022-09-23T18:16:44.462Z,100145.59
2022-09-23T18:19:49.342Z,100137.34
2022-09-23T18:22:50.943Z,100137.66
2022-09-23T18:25:54.118Z,100129.75
2022-09-23T18:29:01.296Z,100139.25
2022-09-23T18:32:03.988Z,100140.63
2022-09-23T18:35:06.329Z,100136.16
2022-09-23T18:38:08.036Z,100128.47
2022-09-23T18:41:11.626Z,100126.38
2022-09-23T18:44:13.303Z,100139.59
2022-09-23T18:47:35.030Z,100135.56
2022-09-23T18:50:40.159Z,100138.50
2022-09-23T18:53:42.130Z,100145.25
2022-09-23T18:56:46.363Z,100141.06
2022-09-23T18:59:48.039Z,100140.59
2022-09-23T19:02:51.563Z,100129.88
2022-09-23T19:05:53.315Z,100134.56
2022-09-23T19:08:55.711Z,100130.00
2022-09-23T19:11:58.759Z,100135.56
2022-09-23T19:15:00.485Z,100126.72
2022-09-23T19:18:02.142Z,100135.00
2022-09-23T19:21:07.133Z,100130.16
2022-09-23T19:24:14.323Z,100133.38
2022-09-23T19:27:17.385Z,100128.31
2022-09-23T19:30:19.393Z,100135.94
2022-09-23T19:33:21.745Z,100135.41
2022-09-23T19:36:25.563Z,100129.66
2022-09-23T19:39:31.067Z,100132.97
2022-09-23T19:42:35.287Z,100119.06
2022-09-23T19:45:38.506Z,100109.72
2022-09-23T19:48:41.108Z,100120.06
2022-09-23T19:51:44.037Z,100119.56
2022-09-23T19:54:48.538Z,100130.69
2022-09-23T19:57:51.801Z,100120.69
2022-09-23T20:00:53.491Z,100121.56
2022-09-23T20:03:55.822Z,100124.34
2022-09-23T20:06:57.472Z,100119.94
2022-09-23T20:09:59.346Z,100121.91
2022-09-23T20:13:03.090Z,100121.22
2022-09-23T20:16:06.295Z,100126.34
2022-09-23T20:19:09.753Z,100120.94
2022-09-23T20:22:33.003Z,100120.63
2022-09-23T20:25:55.505Z,100116.97
2022-09-23T20:29:01.521Z,100121.94
2022-09-23T20:32:03.377Z,100120.97
2022-09-23T20:35:08.746Z,100111.69
2022-09-23T20:38:10.550Z,100110.41
2022-09-23T20:41:12.266Z,100102.38
2022-09-23T20:44:15.270Z,100100.97
2022-09-23T20:47:18.472Z,100094.91
2022-09-23T20:50:20.195Z,100086.41
2022-09-23T20:53:23.215Z,100087.75
2022-09-23T20:56:25.620Z,100093.13
2022-09-23T20:59:28.629Z,100077.72
2022-09-23T21:02:30.304Z,100092.72
2022-09-23T21:05:34.304Z,100084.97
2022-09-23T21:08:37.254Z,100085.75
2022-09-23T21:11:39.100Z,100077.41
2022-09-23T21:14:42.104Z,100081.19
2022-09-23T21:17:43.805Z,100082.34
2022-09-23T21:20:53.799Z,100082.13
2022-09-23T21:24:03.556Z,100083.56
2022-09-23T21:27:13.621Z,100083.38
2022-09-23T21:30:17.340Z,100087.22
2022-09-23T21:33:18.955Z,100082.91
2022-09-23T21:36:21.631Z,100094.63
2022-09-23T21:39:23.401Z,100090.28
2022-09-23T21:42:25.020Z,100091.66
2022-09-23T21:45:28.061Z,100085.00
2022-09-23T21:48:31.478Z,100077.78
2022-09-23T21:51:40.137Z,100085.44
2022-09-23T21:54:41.857Z,100088.47
2022-09-23T21:57:44.099Z,100092.44
2022-09-23T22:00:47.449Z,100099.69
2022-09-23T22:03:52.009Z,100102.97
2022-09-23T22:06:53.949Z,100102.63
2022-09-23T22:09:55.621Z,100100.66
2022-09-23T22:12:57.230Z,100106.56
2022-09-23T22:16:06.108Z,100111.78
2022-09-23T22:19:09.270Z,100104.31
2022-09-23T22:22:13.475Z,100104.47
2022-09-23T22:25:15.456Z,100113.16
2022-09-23T22:28:35.897Z,100102.88
2022-09-23T22:31:57.176Z,100108.53
2022-09-23T22:34:59.112Z,100104.47
2022-09-23T22:38:01.015Z,100099.31
2022-09-23T22:41:02.778Z,100107.47
2022-09-23T22:44:04.822Z,100099.72
2022-09-23T22:47:09.147Z,100100.81
2022-09-23T22:50:13.799Z,100092.06
2022-09-23T22:53:15.529Z,100096.81
2022-09-23T22:56:17.345Z,100096.56
2022-09-23T22:59:19.005Z,100089.44
2022-09-23T23:02:23.611Z,100084.44
2022-09-23T23:05:25.270Z,100077.84
2022-09-23T23:08:27.723Z,100069.94
2022-09-23T23:11:30.109Z,100082.75
2022-09-23T23:14:31.854Z,100067.72
2022-09-23T23:17:34.907Z,100061.44
2022-09-23T23:20:37.691Z,100051.38
2022-09-23T23:23:41.033Z,100050.06
2022-09-23T23:26:43.253Z,100054.06
2022-09-23T23:29:44.946Z,100057.06
2022-09-23T23:32:47.945Z,100051.50
2022-09-23T23:35:50.442Z,100041.13
2022-09-23T23:38:52.282Z,100046.63
2022-09-23T23:41:55.110Z,100047.28
2022-09-23T23:44:56.939Z,100039.94
2022-09-23T23:47:59.839Z,100042.16
2022-09-23T23:51:03.423Z,100049.03
2022-09-23T23:54:05.230Z,100051.97
2022-09-23T23:57:07.533Z,100041.94
